createdAt,value
2022-10-18T00:02:28.218Z,26.45
2022-10-18T00:05:29.657Z,26.63
2022-10-18T00:08:31.095Z,35.67
2022-10-18T00:11:32.810Z,38.90
2022-10-18T00:14:34.200Z,32.25
2022-10-18T00:17:36.454Z,31.13
2022-10-18T00:20:37.975Z,30.27
2022-10-18T00:23:39.667Z,30.55
2022-10-18T00:26:41.066Z,39.60
2022-10-18T00:29:42.532Z,33.10
2022-10-18T00:32:43.993Z,34.15
2022-10-18T00:35:45.447Z,32.47
2022-10-18T00:38:47.741Z,35.05
2022-10-18T00:41:49.976Z,35.33
2022-10-18T00:44:51.353Z,42.13
2022-10-18T00:47:59.789Z,35.58
2022-10-18T00:51:01.262Z,36.55
2022-10-18T00:54:02.852Z,32.40
2022-10-18T00:57:06.001Z,35.53
2022-10-18T01:00:08.506Z,39.90
2022-10-18T01:03:09.984Z,35.47
2022-10-18T01:06:11.438Z,34.20
2022-10-18T01:09:32.137Z,33.50
2022-10-18T01:12:51.572Z,33.80
2022-10-18T01:16:20.978Z,33.53
2022-10-18T01:19:53.300Z,37.17
2022-10-18T01:23:08.757Z,39.83
2022-10-18T01:26:35.084Z,35.35
2022-10-18T01:29:48.449Z,31.67
2022-10-18T01:32:58.563Z,36.67
2022-10-18T01:36:23.169Z,39.25
2022-10-18T01:39:29.570Z,30.92
2022-10-18T01:42:31.789Z,41.42
2022-10-18T01:45:33.362Z,31.08
2022-10-18T01:48:35.814Z,34.65
2022-10-18T01:51:37.260Z,29.83
2022-10-18T01:54:44.317Z,35.67
2022-10-18T01:58:02.736Z,24.88
2022-10-18T02:01:17.489Z,32.13
2022-10-18T02:04:29.206Z,27.45
2022-10-18T02:07:42.419Z,30.35
2022-10-18T02:10:55.610Z,31.00
2022-10-18T02:14:03.270Z,31.60
2022-10-18T02:17:09.636Z,27.88
2022-10-18T02:20:13.523Z,24.13
2022-10-18T02:23:21.100Z,24.83
2022-10-18T02:26:22.652Z,29.88
2022-10-18T02:29:24.173Z,25.00
2022-10-18T02:32:40.753Z,34.17
2022-10-18T02:35:49.555Z,25.63
2022-10-18T02:38:56.332Z,29.98
2022-10-18T02:41:58.124Z,21.80
2022-10-18T02:44:59.525Z,23.02
2022-10-18T02:48:00.935Z,24.85
2022-10-18T02:51:02.328Z,23.67
2022-10-18T02:54:03.833Z,19.75
2022-10-18T02:57:05.236Z,19.88
2022-10-18T03:00:07.859Z,28.45
2022-10-18T03:03:09.295Z,17.60
2022-10-18T03:06:10.693Z,21.95
2022-10-18T03:09:12.128Z,22.63
2022-10-18T03:12:13.578Z,22.15
2022-10-18T03:15:14.978Z,22.92
2022-10-18T03:18:16.398Z,21.48
2022-10-18T03:21:17.795Z,22.83
2022-10-18T03:24:19.217Z,30.40
2022-10-18T03:27:20.629Z,24.67
2022-10-18T03:30:22.039Z,27.88
2022-10-18T03:33:23.418Z,24.27
2022-10-18T03:36:24.883Z,31.77
2022-10-18T03:39:26.270Z,31.88
2022-10-18T03:42:27.695Z,33.50
2022-10-18T03:45:31.299Z,38.58
2022-10-18T03:48:33.132Z,37.45
2022-10-18T03:51:34.549Z,45.10
2022-10-18T03:54:35.954Z,35.85
2022-10-18T03:57:37.374Z,37.63
2022-10-18T04:00:38.787Z,43.97
2022-10-18T04:03:40.181Z,49.83
2022-10-18T04:06:41.795Z,49.10
2022-10-18T04:09:43.200Z,42.00
2022-10-18T04:12:44.573Z,50.42
2022-10-18T04:15:46.012Z,53.65
2022-10-18T04:18:47.444Z,47.78
2022-10-18T04:21:48.839Z,46.80
2022-10-18T04:24:50.244Z,37.85
2022-10-18T04:27:51.689Z,44.85
2022-10-18T04:30:53.574Z,45.80
2022-10-18T04:33:55.053Z,47.33
2022-10-18T04:36:56.452Z,43.92
2022-10-18T04:39:57.870Z,46.53
2022-10-18T04:42:59.311Z,46.45
2022-10-18T04:46:00.772Z,45.60
2022-10-18T04:49:02.422Z,47.17
2022-10-18T04:52:04.319Z,54.72
2022-10-18T04:55:06.208Z,47.38
2022-10-18T04:58:07.624Z,41.35
2022-10-18T05:01:09.056Z,48.95
2022-10-18T05:04:10.565Z,64.22
2022-10-18T05:07:12.012Z,52.15
2022-10-18T05:10:13.414Z,59.95
2022-10-18T05:13:14.924Z,62.38
2022-10-18T05:16:16.326Z,59.10
2022-10-18T05:19:17.730Z,48.05
2022-10-18T05:22:19.216Z,46.80
2022-10-18T05:25:20.633Z,40.53
2022-10-18T05:28:38.778Z,38.42
2022-10-18T05:31:41.379Z,34.63
2022-10-18T05:34:42.797Z,37.55
2022-10-18T05:37:44.209Z,29.35
2022-10-18T05:40:45.630Z,24.77
2022-10-18T05:43:47.033Z,30.40
2022-10-18T05:46:48.433Z,24.23
2022-10-18T05:49:49.833Z,24.42
2022-10-18T05:52:51.250Z,26.95
2022-10-18T05:55:52.675Z,27.30
2022-10-18T05:58:54.185Z,26.27
2022-10-18T06:01:55.614Z,28.95
2022-10-18T06:04:57.003Z,28.42
2022-10-18T06:07:58.565Z,27.35
2022-10-18T06:11:00.412Z,34.95
2022-10-18T06:14:01.897Z,33.25
2022-10-18T06:17:03.527Z,24.10
2022-10-18T06:20:05.620Z,24.85
2022-10-18T06:23:07.081Z,26.80
2022-10-18T06:26:10.870Z,25.45
2022-10-18T06:29:12.379Z,22.67
2022-10-18T06:32:13.932Z,25.60
2022-10-18T06:35:15.381Z,22.27
2022-10-18T06:38:16.808Z,24.30
2022-10-18T06:41:18.248Z,32.80
2022-10-18T06:44:20.843Z,35.15
2022-10-18T06:47:22.241Z,32.92
2022-10-18T06:50:23.783Z,30.73
2022-10-18T06:53:30.840Z,30.20
2022-10-18T06:56:32.496Z,22.38
2022-10-18T06:59:33.902Z,23.27
2022-10-18T07:02:35.357Z,22.60
2022-10-18T07:05:36.877Z,23.15
2022-10-18T07:08:39.530Z,25.30
2022-10-18T07:11:40.926Z,21.38
2022-10-18T07:14:42.344Z,22.05
2022-10-18T07:17:44.552Z,23.67
2022-10-18T07:20:45.963Z,26.83
2022-10-18T07:23:48.191Z,21.70
2022-10-18T07:26:50.129Z,16.48
2022-10-18T07:29:51.520Z,12.82
2022-10-18T07:32:52.929Z,8.32
2022-10-18T07:35:54.329Z,8.70
2022-10-18T07:38:55.974Z,5.63
2022-10-18T07:41:57.613Z,6.40
2022-10-18T07:44:59.021Z,6.72
2022-10-18T07:48:00.447Z,6.15
2022-10-18T07:51:02.300Z,6.78
2022-10-18T07:54:03.803Z,7.65
2022-10-18T07:57:05.235Z,8.65
2022-10-18T08:00:07.346Z,13.93
2022-10-18T08:03:12.970Z,12.75
2022-10-18T08:06:16.596Z,14.65
2022-10-18T08:09:18.031Z,18.92
2022-10-18T08:12:19.433Z,18.13
2022-10-18T08:15:20.853Z,20.90
2022-10-18T08:18:22.291Z,23.88
2022-10-18T08:21:23.698Z,21.00
2022-10-18T08:24:25.159Z,22.65
2022-10-18T08:27:26.648Z,17.42
2022-10-18T08:30:28.153Z,23.30
2022-10-18T08:33:29.577Z,21.67
2022-10-18T08:36:31.006Z,28.17
2022-10-18T08:39:32.429Z,16.23
2022-10-18T08:42:42.722Z,14.88
2022-10-18T08:45:44.357Z,17.33
2022-10-18T08:48:51.218Z,17.05
2022-10-18T08:51:53.911Z,17.27
2022-10-18T08:55:11.274Z,16.83
2022-10-18T08:58:20.379Z,11.27
2022-10-18T09:01:27.737Z,11.70
2022-10-18T09:04:44.292Z,11.95
2022-10-18T09:08:09.985Z,15.05
2022-10-18T09:11:23.361Z,9.82
2022-10-18T09:14:52.584Z,11.65
2022-10-18T09:18:07.141Z,12.18
2022-10-18T09:21:18.599Z,16.23
2022-10-18T09:24:34.169Z,7.60
2022-10-18T09:27:52.087Z,8.80
2022-10-18T09:31:10.818Z,7.80
2022-10-18T09:34:31.356Z,9.82
2022-10-18T09:37:34.795Z,10.30
2022-10-18T09:40:54.081Z,9.15
2022-10-18T09:44:12.954Z,10.93
2022-10-18T09:47:19.295Z,9.35
2022-10-18T09:50:29.579Z,8.20
2022-10-18T09:53:41.452Z,7.93
2022-10-18T09:57:01.039Z,10.27
2022-10-18T10:00:04.790Z,7.35
2022-10-18T10:03:11.296Z,12.63
2022-10-18T10:06:12.660Z,7.65
2022-10-18T10:09:15.935Z,8.38
2022-10-18T10:12:25.694Z,7.07
2022-10-18T10:15:31.292Z,9.15
2022-10-18T10:18:38.960Z,8.52
2022-10-18T10:21:40.417Z,9.35
2022-10-18T10:24:53.345Z,8.20
2022-10-18T10:27:54.942Z,6.57
2022-10-18T10:31:26.485Z,8.15
2022-10-18T10:34:29.433Z,13.57
2022-10-18T10:37:36.191Z,5.00
2022-10-18T10:40:48.692Z,7.78
2022-10-18T10:43:50.940Z,8.48
2022-10-18T10:46:53.947Z,13.30
2022-10-18T10:49:56.221Z,9.10
2022-10-18T10:52:58.390Z,8.75
2022-10-18T10:56:00.266Z,7.93
2022-10-18T10:59:23.335Z,9.00
2022-10-18T11:02:33.160Z,5.18
2022-10-18T11:05:44.980Z,4.80
2022-10-18T11:11:59.425Z,6.18
2022-10-18T11:15:09.794Z,7.35
2022-10-18T11:18:14.137Z,8.93
2022-10-18T11:21:31.098Z,5.65
2022-10-18T11:24:35.325Z,9.13
2022-10-18T11:27:54.889Z,3.55
2022-10-18T11:31:09.949Z,6.05
2022-10-18T11:34:40.838Z,6.50
2022-10-18T11:38:03.286Z,5.18
2022-10-18T11:41:36.925Z,5.20
2022-10-18T11:44:48.232Z,8.85
2022-10-18T11:48:02.776Z,4.55
2022-10-18T11:52:03.111Z,3.10
2022-10-18T11:55:30.362Z,5.28
2022-10-18T11:58:46.560Z,2.75
2022-10-18T12:02:38.962Z,6.30
2022-10-18T12:05:44.052Z,6.97
2022-10-18T12:08:49.641Z,5.55
2022-10-18T12:11:57.107Z,6.85
2022-10-18T12:15:05.231Z,3.95
2022-10-18T12:18:14.589Z,6.18
2022-10-18T12:21:24.549Z,6.18
2022-10-18T12:24:30.458Z,9.85
2022-10-18T12:27:40.069Z,5.82
2022-10-18T12:31:04.727Z,7.28
2022-10-18T12:34:21.762Z,5.65
2022-10-18T12:37:35.115Z,9.88
2022-10-18T12:40:49.360Z,4.72
2022-10-18T12:43:58.709Z,4.03
2022-10-18T12:47:06.265Z,5.40
2022-10-18T12:50:29.050Z,4.25
2022-10-18T12:53:31.892Z,5.97
2022-10-18T12:56:42.053Z,4.55
2022-10-18T12:59:43.940Z,9.52
2022-10-18T13:02:45.369Z,6.65
2022-10-18T13:05:52.758Z,5.07
2022-10-18T13:09:17.566Z,7.38
2022-10-18T13:12:18.926Z,10.20
2022-10-18T13:15:34.866Z,7.35
2022-10-18T13:18:59.762Z,6.70
2022-10-18T13:22:25.675Z,5.60
2022-10-18T13:25:39.652Z,4.22
2022-10-18T13:28:54.957Z,5.25
2022-10-18T13:32:01.455Z,10.23
2022-10-18T13:35:03.265Z,5.20
2022-10-18T13:38:26.892Z,4.90
2022-10-18T13:41:57.579Z,8.10
2022-10-18T13:45:30.667Z,8.35
2022-10-18T13:48:35.466Z,6.60
2022-10-18T13:52:15.057Z,7.03
2022-10-18T13:55:33.541Z,8.60
2022-10-18T13:58:53.780Z,7.97
2022-10-18T14:02:51.802Z,6.93
2022-10-18T14:06:20.512Z,5.97
2022-10-18T14:09:43.698Z,6.07
2022-10-18T14:12:51.933Z,5.88
2022-10-18T14:16:03.718Z,7.47
2022-10-18T14:19:20.671Z,8.02
2022-10-18T14:22:26.476Z,9.18
2022-10-18T14:25:27.796Z,8.82
2022-10-18T14:28:47.947Z,10.52
2022-10-18T14:31:54.509Z,2.60
2022-10-18T14:35:20.626Z,6.68
2022-10-18T14:38:18.537Z,9.60
2022-10-18T14:41:19.873Z,4.47
2022-10-18T14:44:26.056Z,7.03
2022-10-18T14:47:28.755Z,13.75
2022-10-18T14:50:30.907Z,6.40
2022-10-18T14:53:37.259Z,5.80
2022-10-18T14:56:41.289Z,6.93
2022-10-18T14:59:49.162Z,5.97
2022-10-18T15:02:50.875Z,8.18
2022-10-18T15:05:59.406Z,6.35
2022-10-18T15:09:03.132Z,5.60
2022-10-18T15:12:06.807Z,8.30
2022-10-18T15:15:16.873Z,5.40
2022-10-18T15:18:26.637Z,5.97
2022-10-18T15:21:28.537Z,4.53
2022-10-18T15:24:39.377Z,7.50
2022-10-18T15:27:52.080Z,8.05
2022-10-18T15:30:53.782Z,5.60
2022-10-18T15:34:09.799Z,8.75
2022-10-18T15:37:29.833Z,7.55
2022-10-18T15:40:35.297Z,6.72
2022-10-18T15:43:36.793Z,6.88
2022-10-18T15:46:38.970Z,6.72
2022-10-18T15:49:46.338Z,4.85
2022-10-18T15:52:47.821Z,6.32
2022-10-18T15:56:05.367Z,11.48
2022-10-18T15:59:23.324Z,9.57
2022-10-18T16:02:24.810Z,9.32
2022-10-18T16:05:26.230Z,7.75
2022-10-18T16:08:29.021Z,4.93
2022-10-18T16:11:30.412Z,10.10
2022-10-18T16:14:32.141Z,9.43
2022-10-18T16:17:33.939Z,7.32
2022-10-18T16:20:35.525Z,10.50
2022-10-18T16:23:36.934Z,7.13
2022-10-18T16:26:38.634Z,7.00
2022-10-18T16:29:40.065Z,8.57
2022-10-18T16:32:41.573Z,7.20
2022-10-18T16:35:42.977Z,8.55
2022-10-18T16:38:45.326Z,13.25
2022-10-18T16:41:47.588Z,10.27
2022-10-18T16:44:49.013Z,8.75
2022-10-18T16:47:50.431Z,15.30
2022-10-18T16:50:54.560Z,14.25
2022-10-18T16:56:57.358Z,11.95
2022-10-18T16:59:58.773Z,11.88
2022-10-18T17:03:00.250Z,9.52
2022-10-18T17:06:01.998Z,9.38
2022-10-18T17:09:03.748Z,12.75
2022-10-18T17:12:05.410Z,13.85
2022-10-18T17:15:08.173Z,11.90
2022-10-18T17:18:19.164Z,11.07
2022-10-18T17:21:21.054Z,10.73
2022-10-18T17:24:22.480Z,15.10
2022-10-18T17:27:24.144Z,8.48
2022-10-18T17:30:25.565Z,12.73
2022-10-18T17:33:26.959Z,15.57
2022-10-18T17:36:32.279Z,17.35
2022-10-18T17:39:33.922Z,13.13
2022-10-18T17:42:35.448Z,12.15
2022-10-18T17:45:37.164Z,15.98
2022-10-18T17:48:38.589Z,14.98
2022-10-18T17:51:40.069Z,11.52
2022-10-18T17:54:41.522Z,16.63
2022-10-18T17:57:43.723Z,11.50
2022-10-18T18:00:45.298Z,17.38
2022-10-18T18:03:47.423Z,15.10
2022-10-18T18:06:48.948Z,17.27
2022-10-18T18:09:50.377Z,15.75
2022-10-18T18:12:51.859Z,17.40
2022-10-18T18:15:53.352Z,15.52
2022-10-18T18:18:56.921Z,18.63
2022-10-18T18:21:58.521Z,15.50
2022-10-18T18:25:00.129Z,17.73
2022-10-18T18:28:05.236Z,16.48
2022-10-18T18:31:16.768Z,26.10
2022-10-18T18:34:19.168Z,16.40
2022-10-18T18:37:20.621Z,19.27
2022-10-18T18:40:22.091Z,17.63
2022-10-18T18:43:23.755Z,23.20
2022-10-18T18:46:27.564Z,16.90
2022-10-18T18:49:28.961Z,16.35
2022-10-18T18:52:30.567Z,20.40
2022-10-18T18:55:32.217Z,17.75
2022-10-18T18:58:38.856Z,21.60
2022-10-18T19:01:40.938Z,21.05
2022-10-18T19:04:42.368Z,18.45
2022-10-18T19:07:43.829Z,20.63
2022-10-18T19:10:45.244Z,18.88
2022-10-18T19:13:47.829Z,25.77
2022-10-18T19:16:54.250Z,21.92
2022-10-18T19:19:55.680Z,17.92
2022-10-18T19:22:57.065Z,18.73
2022-10-18T19:26:24.208Z,22.75
2022-10-18T19:29:28.640Z,19.77
2022-10-18T19:32:30.124Z,20.55
2022-10-18T19:35:31.556Z,22.30
2022-10-18T19:38:32.973Z,21.05
2022-10-18T19:41:34.472Z,24.08
2022-10-18T19:44:37.035Z,20.17
2022-10-18T19:47:38.553Z,23.17
2022-10-18T19:50:40.103Z,24.02
2022-10-18T19:53:41.509Z,23.55
2022-10-18T19:56:43.300Z,23.52
2022-10-18T19:59:44.715Z,17.33
2022-10-18T20:02:46.171Z,24.05
2022-10-18T20:05:53.411Z,17.67
2022-10-18T20:08:55.087Z,29.42
2022-10-18T20:11:56.562Z,21.38
2022-10-18T20:14:57.978Z,29.67
2022-10-18T20:17:59.391Z,24.92
2022-10-18T20:21:04.878Z,28.63
2022-10-18T20:24:06.905Z,24.02
2022-10-18T20:27:08.355Z,23.65
2022-10-18T20:30:11.394Z,23.02
2022-10-18T20:33:12.988Z,33.83
2022-10-18T20:36:17.098Z,26.40
2022-10-18T20:39:18.564Z,30.98
2022-10-18T20:42:20.021Z,28.88
2022-10-18T20:45:21.428Z,34.08
2022-10-18T20:48:22.962Z,30.40
2022-10-18T20:51:24.834Z,33.88
2022-10-18T20:54:26.339Z,26.85
2022-10-18T20:57:31.680Z,25.08
2022-10-18T21:00:35.773Z,26.67
2022-10-18T21:03:42.720Z,34.58
2022-10-18T21:06:44.266Z,27.80
2022-10-18T21:09:45.666Z,29.38
2022-10-18T21:12:47.760Z,26.38
2022-10-18T21:15:59.489Z,19.65
2022-10-18T21:19:05.833Z,27.85
2022-10-18T21:22:07.243Z,24.13
2022-10-18T21:25:08.904Z,34.15
2022-10-18T21:28:10.351Z,40.38
2022-10-18T21:31:20.751Z,41.65
2022-10-18T21:34:22.269Z,54.70
2022-10-18T21:37:23.684Z,53.13
2022-10-18T21:40:25.116Z,48.17
2022-10-18T21:43:27.043Z,50.63
2022-10-18T21:46:28.569Z,58.63
2022-10-18T21:49:29.959Z,55.33
2022-10-18T21:52:31.620Z,49.38
2022-10-18T21:55:35.823Z,46.88
2022-10-18T21:58:37.707Z,46.40
2022-10-18T22:01:40.031Z,42.85
2022-10-18T22:04:41.450Z,38.08
2022-10-18T22:07:42.839Z,49.42
2022-10-18T22:10:44.240Z,47.25
2022-10-18T22:13:46.132Z,38.90
2022-10-18T22:16:47.849Z,39.15
2022-10-18T22:19:49.232Z,43.58
2022-10-18T22:22:52.488Z,37.97
2022-10-18T22:25:53.887Z,36.92
2022-10-18T22:28:57.540Z,33.25
2022-10-18T22:31:59.025Z,38.10
2022-10-18T22:35:00.441Z,37.78
2022-10-18T22:38:01.853Z,34.65
2022-10-18T22:41:07.592Z,43.25
2022-10-18T22:44:11.481Z,36.63
2022-10-18T22:47:12.933Z,33.45
2022-10-18T22:50:14.375Z,39.40
2022-10-18T22:53:15.766Z,37.38
2022-10-18T22:56:19.617Z,44.33
2022-10-18T22:59:21.030Z,40.53
2022-10-18T23:02:22.479Z,35.60
2022-10-18T23:05:23.899Z,39.88
2022-10-18T23:08:26.377Z,35.88
2022-10-18T23:11:28.464Z,26.40
2022-10-18T23:14:29.872Z,30.92
2022-10-18T23:17:31.692Z,31.65
2022-10-18T23:20:33.434Z,25.52
2022-10-18T23:23:36.472Z,41.40
2022-10-18T23:26:37.868Z,33.78
2022-10-18T23:29:39.289Z,30.48
2022-10-18T23:32:40.705Z,28.80
2022-10-18T23:35:42.117Z,31.20
2022-10-18T23:38:44.029Z,27.10
2022-10-18T23:41:45.430Z,26.77
2022-10-18T23:44:46.836Z,28.17
2022-10-18T23:47:48.250Z,32.10
2022-10-18T23:50:49.762Z,30.40
2022-10-18T23:53:51.192Z,28.58
2022-10-18T23:56:52.581Z,25.70
2022-10-18T23:59:53.987Z,27.75
